createdAt,value
2017-05-30T00:00:44.205Z,6.28
2017-05-30T00:03:10.374Z,6.56
2017-05-30T00:05:36.537Z,8.86
2017-05-30T00:08:02.752Z,6.10
2017-05-30T00:10:28.986Z,5.56
2017-05-30T00:12:55.168Z,5.90
2017-05-30T00:15:21.350Z,6.46
2017-05-30T00:17:47.510Z,6.22
2017-05-30T00:20:13.689Z,6.42
2017-05-30T00:22:39.923Z,6.16
2017-05-30T00:25:06.125Z,6.88
2017-05-30T00:27:32.302Z,6.00
2017-05-30T00:29:58.457Z,5.88
2017-05-30T00:32:24.614Z,5.70
2017-05-30T00:34:50.782Z,6.22
2017-05-30T00:37:16.938Z,6.20
2017-05-30T00:39:43.129Z,6.28
2017-05-30T00:42:09.316Z,5.52
2017-05-30T00:44:35.494Z,5.84
2017-05-30T00:47:01.686Z,5.54
2017-05-30T00:49:27.941Z,5.72
2017-05-30T00:51:54.125Z,5.84
2017-05-30T00:54:20.319Z,4.70
2017-05-30T00:56:46.699Z,5.46
2017-05-30T00:59:13.475Z,6.98
2017-05-30T01:01:39.625Z,5.66
2017-05-30T01:04:05.981Z,5.78
2017-05-30T01:06:32.143Z,5.58
2017-05-30T01:08:58.323Z,5.96
2017-05-30T01:11:24.581Z,5.32
2017-05-30T01:13:50.778Z,5.26
2017-05-30T01:16:16.961Z,5.76
2017-05-30T01:18:43.187Z,5.32
2017-05-30T01:21:09.897Z,5.02
2017-05-30T01:23:36.285Z,5.18
2017-05-30T01:26:02.436Z,5.34
2017-05-30T01:28:28.661Z,5.38
2017-05-30T01:30:54.860Z,4.80
2017-05-30T01:33:21.020Z,4.90
2017-05-30T01:35:47.184Z,5.18
2017-05-30T01:38:13.397Z,5.20
2017-05-30T01:40:39.767Z,4.70
2017-05-30T01:43:05.948Z,5.44
2017-05-30T01:45:32.169Z,5.36
2017-05-30T01:47:58.375Z,5.10
2017-05-30T01:50:24.560Z,5.32
2017-05-30T01:52:50.822Z,5.08
2017-05-30T01:55:16.969Z,5.78
2017-05-30T01:57:43.171Z,5.08
2017-05-30T02:00:09.369Z,4.64
2017-05-30T02:02:35.613Z,4.70
2017-05-30T02:05:01.777Z,5.42
2017-05-30T02:07:27.925Z,5.06
2017-05-30T02:09:54.074Z,5.16
2017-05-30T02:12:21.242Z,4.82
2017-05-30T02:14:47.486Z,4.64
2017-05-30T02:17:13.706Z,4.70
2017-05-30T02:19:39.914Z,4.90
2017-05-30T02:22:06.074Z,4.96
2017-05-30T02:24:32.257Z,4.50
2017-05-30T02:26:58.489Z,4.52
2017-05-30T02:29:24.646Z,4.64
2017-05-30T02:31:50.810Z,4.66
2017-05-30T02:34:17.036Z,4.70
2017-05-30T02:36:43.238Z,3.80
2017-05-30T02:39:09.429Z,4.50
2017-05-30T02:41:35.575Z,4.66
2017-05-30T02:44:01.725Z,4.48
2017-05-30T02:46:28.077Z,4.88
2017-05-30T02:48:54.263Z,4.48
2017-05-30T02:51:20.465Z,4.46
2017-05-30T02:53:46.653Z,4.26
2017-05-30T02:56:12.837Z,4.66
2017-05-30T02:58:39.048Z,4.68
2017-05-30T03:01:05.250Z,4.60
2017-05-30T03:03:31.444Z,4.36
2017-05-30T03:05:57.627Z,4.30
2017-05-30T03:08:23.853Z,4.46
2017-05-30T03:10:50.019Z,4.06
2017-05-30T03:13:16.279Z,4.60
2017-05-30T03:15:42.470Z,4.58
2017-05-30T03:18:08.699Z,3.72
2017-05-30T03:20:35.446Z,5.10
2017-05-30T03:23:01.649Z,4.74
2017-05-30T03:25:27.926Z,4.06
2017-05-30T03:27:54.079Z,4.28
2017-05-30T03:30:20.260Z,4.44
2017-05-30T03:32:46.535Z,4.06
2017-05-30T03:35:12.698Z,5.04
2017-05-30T03:37:38.970Z,4.00
2017-05-30T03:40:05.157Z,3.42
2017-05-30T03:42:31.355Z,5.28
2017-05-30T03:44:57.549Z,4.32
2017-05-30T03:47:23.692Z,4.46
2017-05-30T03:49:49.915Z,4.28
2017-05-30T03:52:16.082Z,4.30
2017-05-30T03:54:43.013Z,4.08
2017-05-30T03:57:09.225Z,3.78
2017-05-30T03:59:35.425Z,4.36
2017-05-30T04:02:01.622Z,4.22
2017-05-30T04:04:27.857Z,4.40
2017-05-30T04:06:54.088Z,4.40
2017-05-30T04:09:20.301Z,4.20
2017-05-30T04:11:46.635Z,4.12
2017-05-30T04:14:12.800Z,3.98
2017-05-30T04:16:38.998Z,4.38
2017-05-30T04:19:05.145Z,4.28
2017-05-30T04:21:31.399Z,4.08
2017-05-30T04:23:57.596Z,4.28
2017-05-30T04:26:23.765Z,3.50
2017-05-30T04:28:49.951Z,4.60
2017-05-30T04:31:16.119Z,3.88
2017-05-30T04:33:42.443Z,3.90
2017-05-30T04:36:09.697Z,3.98
2017-05-30T04:38:35.853Z,3.76
2017-05-30T04:41:02.063Z,3.68
2017-05-30T04:43:28.240Z,3.60
2017-05-30T04:45:54.509Z,3.66
2017-05-30T04:48:20.742Z,4.20
2017-05-30T04:50:46.905Z,4.44
2017-05-30T04:53:13.104Z,3.74
2017-05-30T04:55:39.254Z,3.82
2017-05-30T04:58:05.559Z,4.18
2017-05-30T05:00:32.686Z,3.74
2017-05-30T05:02:58.834Z,3.90
2017-05-30T05:05:24.996Z,3.96
2017-05-30T05:07:51.229Z,3.56
2017-05-30T05:10:17.484Z,3.76
2017-05-30T05:12:43.888Z,15.72
2017-05-30T05:15:10.902Z,27.16
2017-05-30T05:17:37.126Z,26.10
2017-05-30T05:20:03.446Z,27.16
2017-05-30T05:22:29.664Z,32.24
2017-05-30T05:24:55.955Z,37.10
2017-05-30T05:27:22.181Z,36.62
2017-05-30T05:29:48.479Z,40.58
2017-05-30T05:32:15.116Z,33.82
2017-05-30T05:34:41.305Z,38.00
2017-05-30T05:37:07.528Z,32.78
2017-05-30T05:39:33.844Z,34.94
2017-05-30T05:42:00.102Z,34.40
2017-05-30T05:44:26.254Z,35.62
2017-05-30T05:46:52.444Z,36.18
2017-05-30T05:49:18.676Z,31.66
2017-05-30T05:51:45.060Z,33.94
2017-05-30T05:54:11.221Z,35.16
2017-05-30T05:56:37.478Z,35.38
2017-05-30T05:59:03.754Z,33.28
2017-05-30T06:01:30.015Z,36.28
2017-05-30T06:03:56.251Z,32.88
2017-05-30T06:06:22.556Z,33.68
2017-05-30T06:08:48.760Z,35.00
2017-05-30T06:11:14.931Z,40.06
2017-05-30T06:13:41.195Z,36.52
2017-05-30T06:16:07.388Z,33.30
2017-05-30T06:18:33.693Z,29.12
2017-05-30T06:20:59.856Z,36.64
2017-05-30T06:23:26.089Z,31.86
2017-05-30T06:25:52.372Z,30.50
2017-05-30T06:28:18.576Z,30.36
2017-05-30T06:30:44.754Z,32.02
2017-05-30T06:33:10.914Z,29.36
2017-05-30T06:35:37.443Z,29.70
2017-05-30T06:38:04.572Z,30.34
2017-05-30T06:40:30.795Z,28.36
2017-05-30T06:42:57.026Z,26.04
2017-05-30T06:45:23.225Z,27.54
2017-05-30T06:47:49.388Z,28.10
2017-05-30T06:50:15.730Z,20.98
2017-05-30T06:52:41.909Z,28.64
2017-05-30T06:55:08.066Z,27.04
2017-05-30T06:57:34.314Z,23.70
2017-05-30T07:00:00.518Z,23.42
2017-05-30T07:02:26.790Z,23.56
2017-05-30T07:04:53.064Z,19.54
2017-05-30T07:07:19.306Z,20.30
2017-05-30T07:09:45.483Z,19.46
2017-05-30T07:12:11.680Z,18.74
2017-05-30T07:14:38.061Z,18.76
2017-05-30T07:17:04.266Z,18.02
2017-05-30T07:19:30.580Z,17.18
2017-05-30T07:21:56.780Z,16.68
2017-05-30T07:24:22.937Z,18.46
2017-05-30T07:26:49.216Z,16.54
2017-05-30T07:29:15.571Z,15.14
2017-05-30T07:31:41.777Z,16.14
2017-05-30T07:34:07.989Z,18.72
2017-05-30T07:36:34.185Z,17.10
2017-05-30T07:39:00.336Z,18.22
2017-05-30T07:41:26.605Z,17.64
2017-05-30T07:43:52.893Z,15.98
2017-05-30T07:46:19.065Z,16.40
2017-05-30T07:48:45.270Z,17.40
2017-05-30T07:51:11.546Z,16.96
2017-05-30T07:53:37.735Z,16.12
2017-05-30T07:56:03.963Z,15.86
2017-05-30T07:58:30.125Z,15.44
2017-05-30T08:00:56.337Z,16.76
2017-05-30T08:03:22.634Z,17.64
2017-05-30T08:05:48.874Z,16.86
2017-05-30T08:08:15.065Z,16.38
2017-05-30T08:10:41.275Z,17.26
2017-05-30T08:13:08.009Z,17.56
2017-05-30T08:15:34.277Z,18.14
2017-05-30T08:18:00.448Z,17.00
2017-05-30T08:20:26.646Z,15.82
2017-05-30T08:22:53.553Z,18.80
2017-05-30T08:25:19.762Z,17.66
2017-05-30T08:27:46.003Z,16.64
2017-05-30T08:30:12.175Z,17.16
2017-05-30T08:42:18.416Z,15.28
2017-05-30T08:44:44.589Z,15.32
2017-05-30T08:47:10.883Z,14.42
2017-05-30T08:49:37.050Z,15.14
2017-05-30T08:52:03.260Z,15.78
2017-05-30T08:54:29.548Z,13.82
2017-05-30T08:56:55.776Z,14.82
2017-05-30T08:59:21.986Z,14.96
2017-05-30T09:01:48.162Z,14.30
2017-05-30T09:04:14.368Z,14.16
2017-05-30T09:06:40.569Z,13.50
2017-05-30T09:09:06.812Z,14.80
2017-05-30T09:11:33.023Z,14.44
2017-05-30T09:13:59.194Z,14.12
2017-05-30T09:16:25.406Z,13.38
2017-05-30T09:18:51.566Z,14.86
2017-05-30T09:21:17.770Z,12.94
2017-05-30T09:23:43.982Z,12.76
2017-05-30T09:26:11.229Z,12.70
2017-05-30T09:28:37.427Z,11.88
2017-05-30T09:31:03.685Z,11.92
2017-05-30T09:33:30.066Z,11.80
2017-05-30T09:35:56.217Z,12.78
2017-05-30T09:38:22.857Z,13.12
2017-05-30T09:40:49.100Z,12.00
2017-05-30T09:43:15.334Z,12.22
2017-05-30T09:45:41.499Z,12.04
2017-05-30T09:48:07.709Z,12.22
2017-05-30T09:50:33.918Z,10.88
2017-05-30T09:53:00.106Z,11.20
2017-05-30T09:55:26.494Z,10.38
2017-05-30T09:57:52.630Z,9.88
2017-05-30T10:00:18.829Z,12.04
2017-05-30T10:02:45.041Z,10.58
2017-05-30T10:05:11.251Z,8.86
2017-05-30T10:07:37.526Z,9.48
2017-05-30T10:10:03.740Z,11.94
2017-05-30T10:12:30.093Z,9.12
2017-05-30T10:14:56.370Z,10.40
2017-05-30T10:17:22.572Z,9.80
2017-05-30T10:19:49.041Z,8.98
2017-05-30T10:22:15.199Z,9.36
2017-05-30T10:24:41.490Z,9.32
2017-05-30T10:27:07.669Z,9.92
2017-05-30T10:29:35.008Z,9.30
2017-05-30T10:32:01.186Z,8.82
2017-05-30T10:34:27.391Z,7.58
2017-05-30T10:36:53.658Z,7.54
2017-05-30T10:39:19.874Z,9.02
2017-05-30T10:41:46.086Z,8.58
2017-05-30T10:44:12.343Z,8.04
2017-05-30T10:46:38.550Z,7.64
2017-05-30T10:49:04.713Z,8.34
2017-05-30T10:51:30.918Z,9.10
2017-05-30T10:53:57.133Z,9.56
2017-05-30T10:56:23.506Z,9.46
2017-05-30T10:58:49.674Z,8.94
2017-05-30T11:01:15.887Z,8.84
2017-05-30T11:03:42.113Z,9.46
2017-05-30T11:06:08.279Z,8.90
2017-05-30T11:08:35.522Z,10.10
2017-05-30T11:11:01.697Z,9.80
2017-05-30T11:13:27.921Z,10.44
2017-05-30T11:15:54.255Z,9.66
2017-05-30T11:18:20.493Z,10.10
2017-05-30T11:20:46.756Z,9.82
2017-05-30T11:23:13.275Z,10.80
2017-05-30T11:25:39.454Z,10.20
2017-05-30T11:28:05.649Z,9.24
2017-05-30T11:40:11.853Z,9.22
2017-05-30T11:42:39.474Z,10.16
2017-05-30T11:45:05.847Z,9.82
2017-05-30T11:47:33.076Z,9.08
2017-05-30T11:49:59.242Z,10.00
2017-05-30T11:52:25.487Z,10.90
2017-05-30T11:54:51.670Z,9.98
2017-05-30T11:57:17.883Z,10.20
2017-05-30T11:59:44.212Z,8.80
2017-05-30T12:02:10.401Z,9.44
2017-05-30T12:04:36.668Z,9.50
2017-05-30T12:07:02.826Z,8.68
2017-05-30T12:09:29.033Z,8.94
2017-05-30T12:11:55.511Z,9.26
2017-05-30T12:14:21.688Z,9.14
2017-05-30T12:16:47.909Z,8.18
2017-05-30T12:19:14.090Z,8.52
2017-05-30T12:21:40.299Z,7.10
2017-05-30T12:24:06.693Z,8.44
2017-05-30T12:26:32.837Z,7.94
2017-05-30T12:28:59.082Z,7.60
2017-05-30T12:31:25.270Z,8.18
2017-05-30T12:33:51.461Z,7.82
2017-05-30T12:36:17.951Z,8.10
2017-05-30T12:38:44.234Z,7.38
2017-05-30T12:41:10.426Z,9.34
2017-05-30T12:43:36.637Z,6.94
2017-05-30T12:46:02.791Z,6.98
2017-05-30T12:48:29.370Z,7.02
2017-05-30T12:50:55.557Z,7.02
2017-05-30T12:53:21.741Z,8.84
2017-05-30T12:55:47.957Z,6.60
2017-05-30T12:58:14.173Z,6.72
2017-05-30T13:00:40.332Z,7.14
2017-05-30T13:03:06.514Z,8.22
2017-05-30T13:05:32.821Z,7.80
2017-05-30T13:07:59.003Z,6.92
2017-05-30T13:10:25.167Z,6.96
2017-05-30T13:12:51.342Z,7.70
2017-05-30T13:15:17.513Z,10.20
2017-05-30T13:17:43.692Z,6.70
2017-05-30T13:20:09.851Z,7.32
2017-05-30T13:22:36.045Z,8.62
2017-05-30T13:25:02.233Z,7.28
2017-05-30T13:27:28.389Z,7.78
2017-05-30T13:29:54.611Z,8.20
2017-05-30T13:32:20.781Z,7.14
2017-05-30T13:34:47.008Z,8.24
2017-05-30T13:37:13.230Z,7.58
2017-05-30T13:39:39.618Z,8.00
2017-05-30T13:42:05.787Z,7.90
2017-05-30T13:44:31.946Z,10.28
2017-05-30T13:46:58.689Z,8.10
2017-05-30T13:49:24.855Z,6.80
2017-05-30T13:51:51.114Z,7.28
2017-05-30T13:54:17.397Z,6.78
2017-05-30T13:56:43.553Z,6.98
2017-05-30T13:59:09.825Z,7.58
2017-05-30T14:01:36.070Z,6.50
2017-05-30T14:04:02.257Z,6.48
2017-05-30T14:06:28.470Z,7.16
2017-05-30T14:08:54.636Z,7.08
2017-05-30T14:11:20.902Z,7.54
2017-05-30T14:13:47.117Z,8.16
2017-05-30T14:16:13.329Z,6.62
2017-05-30T14:18:39.530Z,18.50
2017-05-30T14:21:05.696Z,6.34
2017-05-30T14:23:31.937Z,7.66
2017-05-30T14:25:58.110Z,6.14
2017-05-30T14:28:24.318Z,6.30
2017-05-30T14:30:50.489Z,8.02
2017-05-30T14:33:16.706Z,6.32
2017-05-30T14:35:43.002Z,4.58
2017-05-30T14:38:09.217Z,6.96
2017-05-30T14:40:35.442Z,6.66
2017-05-30T14:43:01.636Z,5.90
2017-05-30T14:45:27.821Z,6.40
2017-05-30T14:47:54.121Z,5.80
2017-05-30T14:50:20.866Z,6.04
2017-05-30T14:52:47.086Z,8.90
2017-05-30T14:55:13.309Z,15.00
2017-05-30T14:57:39.487Z,14.12
2017-05-30T15:00:05.893Z,14.56
2017-05-30T15:02:32.130Z,11.72
2017-05-30T15:04:58.339Z,9.68
2017-05-30T15:07:24.602Z,10.42
2017-05-30T15:09:50.909Z,8.10
2017-05-30T15:12:17.220Z,7.44
2017-05-30T15:14:43.411Z,9.18
2017-05-30T15:17:09.585Z,8.12
2017-05-30T15:19:35.803Z,7.54
2017-05-30T15:22:01.969Z,5.98
2017-05-30T15:24:28.299Z,6.06
2017-05-30T15:26:54.489Z,5.78
2017-05-30T15:29:20.645Z,5.28
2017-05-30T15:31:47.493Z,6.30
2017-05-30T15:34:13.653Z,5.94
2017-05-30T15:36:39.931Z,5.62
2017-05-30T15:39:06.147Z,6.86
2017-05-30T15:41:32.429Z,5.66
2017-05-30T15:43:58.694Z,4.96
2017-05-30T15:46:24.943Z,5.64
2017-05-30T15:48:51.235Z,5.90
2017-05-30T15:51:17.476Z,9.52
2017-05-30T15:53:43.732Z,10.96
2017-05-30T15:56:10.018Z,14.36
2017-05-30T15:58:36.254Z,14.02
2017-05-30T16:01:02.514Z,10.78
2017-05-30T16:03:28.696Z,11.76
2017-05-30T16:05:54.968Z,13.14
2017-05-30T16:08:21.263Z,7.10
2017-05-30T16:10:47.559Z,7.80
2017-05-30T16:13:13.775Z,12.52
2017-05-30T16:15:39.987Z,9.38
2017-05-30T16:18:06.229Z,8.16
2017-05-30T16:20:32.431Z,7.66
2017-05-30T16:22:58.598Z,8.68
2017-05-30T16:25:25.238Z,7.84
2017-05-30T16:27:51.513Z,9.30
2017-05-30T16:30:17.722Z,8.18
2017-05-30T16:32:44.122Z,5.92
2017-05-30T16:46:56.323Z,7.64
2017-05-30T17:07:01.574Z,4.50
2017-05-30T17:09:27.731Z,5.14
2017-05-30T17:11:53.980Z,4.18
2017-05-30T17:14:20.154Z,4.40
2017-05-30T17:16:46.449Z,3.86
2017-05-30T17:19:12.590Z,7.30
2017-05-30T17:21:44.609Z,4.92
2017-05-30T17:24:10.898Z,4.80
2017-05-30T17:26:37.092Z,4.38
2017-05-30T17:29:03.291Z,3.74
2017-05-30T17:31:29.458Z,3.52
2017-05-30T17:33:55.630Z,4.04
2017-05-30T17:45:35.618Z,3.82
2017-05-30T17:48:01.867Z,3.20
2017-05-30T18:05:12.606Z,4.24
2017-05-30T18:07:38.778Z,3.52
2017-05-30T18:10:04.962Z,3.36
2017-05-30T18:12:31.129Z,3.74
2017-05-30T18:14:57.421Z,3.52
2017-05-30T18:17:23.714Z,3.22
2017-05-30T18:25:43.675Z,3.12
2017-05-30T18:28:09.929Z,4.28
2017-05-30T18:30:36.164Z,3.56
2017-05-30T18:33:02.329Z,2.82
2017-05-30T18:44:46.553Z,3.62
2017-05-30T18:47:12.891Z,3.48
2017-05-30T18:49:39.108Z,3.44
2017-05-30T19:03:51.305Z,2.70
2017-05-30T19:23:56.471Z,3.02
2017-05-30T19:26:22.743Z,2.70
2017-05-30T19:28:48.996Z,2.44
2017-05-30T19:31:15.235Z,2.70
2017-05-30T19:33:41.653Z,2.96
2017-05-30T19:44:57.707Z,2.60
2017-05-30T19:47:24.762Z,2.46
2017-05-30T19:49:51.768Z,3.64
2017-05-30T20:04:03.941Z,2.66
2017-05-30T20:24:09.398Z,3.30
2017-05-30T20:26:35.653Z,2.54
2017-05-30T20:29:01.895Z,2.42
2017-05-30T20:31:28.078Z,3.00
2017-05-30T20:33:54.381Z,3.00
2017-05-30T20:45:10.009Z,2.58
2017-05-30T20:47:36.270Z,3.04
2017-05-30T20:50:02.435Z,2.56
2017-05-30T21:04:14.774Z,2.88
2017-05-30T21:06:46.810Z,2.80
2017-05-30T21:09:13.194Z,2.42
2017-05-30T21:11:39.914Z,2.52
2017-05-30T21:14:06.080Z,2.44
2017-05-30T21:16:32.299Z,2.40
2017-05-30T21:18:58.474Z,2.44
2017-05-30T21:24:21.407Z,2.40
2017-05-30T21:26:49.163Z,2.46
2017-05-30T21:29:15.370Z,2.46
2017-05-30T21:31:41.721Z,2.10
2017-05-30T21:34:07.923Z,2.08
2017-05-30T21:45:23.478Z,2.70
2017-05-30T21:47:49.816Z,2.68
2017-05-30T21:50:15.995Z,2.10
2017-05-30T21:52:48.036Z,2.10
2017-05-30T21:55:14.194Z,2.40
2017-05-30T21:57:40.377Z,2.24
2017-05-30T22:00:06.597Z,2.34
2017-05-30T22:02:32.803Z,3.06
2017-05-30T22:04:59.024Z,2.14
2017-05-30T22:25:04.435Z,3.14
2017-05-30T22:27:30.594Z,2.54
2017-05-30T22:29:56.773Z,2.76
2017-05-30T22:32:22.955Z,4.52
2017-05-30T22:34:49.108Z,4.36
2017-05-30T22:46:04.853Z,1.70
2017-05-30T22:48:31.037Z,2.26
2017-05-30T22:50:57.189Z,2.00
2017-05-30T23:05:09.537Z,3.68
2017-05-30T23:25:15.334Z,4.68
2017-05-30T23:27:41.611Z,2.42
2017-05-30T23:30:07.794Z,2.84
2017-05-30T23:32:33.969Z,2.52
2017-05-30T23:35:00.159Z,2.00
2017-05-30T23:46:15.870Z,1.96
2017-05-30T23:48:42.181Z,3.00
2017-05-30T23:51:08.461Z,2.22
